sensor_id;sensor_type;location;lat;lon;timestamp;pressure;altitude;pressure_sealevel;temperature;humidity
10658;BME280;5377;43.276;26.930;2023-04-08T00:00:42;99468.81;;;7.30;93.62
10658;BME280;5377;43.276;26.930;2023-04-08T00:03:09;99459.81;;;7.23;95.90
10658;BME280;5377;43.276;26.930;2023-04-08T00:05:36;99464.97;;;7.25;96.86
10658;BME280;5377;43.276;26.930;2023-04-08T00:08:03;99468.47;;;7.33;95.29
10658;BME280;5377;43.276;26.930;2023-04-08T00:10:30;99470.97;;;7.27;94.98
10658;BME280;5377;43.276;26.930;2023-04-08T00:12:56;99468.81;;;7.30;94.55
10658;BME280;5377;43.276;26.930;2023-04-08T00:15:25;99464.09;;;7.40;93.39
10658;BME280;5377;43.276;26.930;2023-04-08T00:17:53;99452.13;;;7.36;93.28
10658;BME280;5377;43.276;26.930;2023-04-08T00:20:21;99452.66;;;7.32;93.69
10658;BME280;5377;43.276;26.930;2023-04-08T00:22:48;99463.81;;;7.27;94.63
10658;BME280;5377;43.276;26.930;2023-04-08T00:25:15;99452.25;;;7.43;94.83
10658;BME280;5377;43.276;26.930;2023-04-08T00:27:41;99455.41;;;7.46;94.38
10658;BME280;5377;43.276;26.930;2023-04-08T00:30:08;99455.63;;;7.37;93.93
10658;BME280;5377;43.276;26.930;2023-04-08T00:32:36;99454.50;;;7.23;95.48
10658;BME280;5377;43.276;26.930;2023-04-08T00:35:04;99457.28;;;7.38;94.65
10658;BME280;5377;43.276;26.930;2023-04-08T00:37:31;99445.66;;;7.31;94.64
10658;BME280;5377;43.276;26.930;2023-04-08T00:39:59;99449.47;;;7.36;94.25
10658;BME280;5377;43.276;26.930;2023-04-08T00:42:26;99445.84;;;7.29;95.35
10658;BME280;5377;43.276;26.930;2023-04-08T00:44:55;99436.13;;;7.36;95.50
10658;BME280;5377;43.276;26.930;2023-04-08T00:47:22;99457.28;;;7.38;94.37
10658;BME280;5377;43.276;26.930;2023-04-08T00:49:48;99449.34;;;7.30;94.41
10658;BME280;5377;43.276;26.930;2023-04-08T00:52:17;99455.31;;;7.24;93.57
10658;BME280;5377;43.276;26.930;2023-04-08T00:54:43;99445.66;;;7.31;94.64
10658;BME280;5377;43.276;26.930;2023-04-08T00:57:10;99438.66;;;7.30;94.38
10658;BME280;5377;43.276;26.930;2023-04-08T00:59:37;99438.22;;;7.18;95.65
10658;BME280;5377;43.276;26.930;2023-04-08T01:02:10;99426.41;;;7.12;95.90
10658;BME280;5377;43.276;26.930;2023-04-08T01:04:43;99440.50;;;7.29;95.49
10658;BME280;5377;43.276;26.930;2023-04-08T01:07:14;99435.53;;;7.18;95.41
10658;BME280;5377;43.276;26.930;2023-04-08T01:09:46;99420.78;;;7.07;96.09
10658;BME280;5377;43.276;26.930;2023-04-08T01:12:19;99427.34;;;7.28;95.00
10658;BME280;5377;43.276;26.930;2023-04-08T01:14:47;99418.19;;;7.30;93.68
10658;BME280;5377;43.276;26.930;2023-04-08T01:17:16;99424.59;;;7.44;91.74
10658;BME280;5377;43.276;26.930;2023-04-08T01:19:46;99432.50;;;7.29;92.47
10658;BME280;5377;43.276;26.930;2023-04-08T01:22:21;99435.44;;;7.42;92.23
10658;BME280;5377;43.276;26.930;2023-04-08T01:24:56;99436.09;;;7.44;91.46
10658;BME280;5377;43.276;26.930;2023-04-08T01:27:26;99435.38;;;7.50;89.45
10658;BME280;5377;43.276;26.930;2023-04-08T01:29:54;99430.41;;;7.47;89.21
10658;BME280;5377;43.276;26.930;2023-04-08T01:32:23;99428.56;;;7.48;90.90
10658;BME280;5377;43.276;26.930;2023-04-08T01:34:51;99420.63;;;7.40;93.24
10658;BME280;5377;43.276;26.930;2023-04-08T01:37:19;99428.84;;;7.30;95.95
10658;BME280;5377;43.276;26.930;2023-04-08T01:39:47;99434.19;;;7.30;98.62
10658;BME280;5377;43.276;26.930;2023-04-08T01:42:15;99433.66;;;7.35;99.38
10658;BME280;5377;43.276;26.930;2023-04-08T01:44:43;99434.19;;;7.22;100.00
10658;BME280;5377;43.276;26.930;2023-04-08T01:47:12;99452.66;;;7.24;100.00
10658;BME280;5377;43.276;26.930;2023-04-08T01:49:40;99434.19;;;7.22;100.00
10658;BME280;5377;43.276;26.930;2023-04-08T01:52:08;99447.19;;;7.17;100.00
10658;BME280;5377;43.276;26.930;2023-04-08T01:54:36;99442.19;;;7.22;100.00
10658;BME280;5377;43.276;26.930;2023-04-08T01:57:04;99442.41;;;7.12;100.00
10658;BME280;5377;43.276;26.930;2023-04-08T01:59:34;99445.94;;;7.05;100.00
10658;BME280;5377;43.276;26.930;2023-04-08T02:02:06;99443.91;;;7.07;100.00
10658;BME280;5377;43.276;26.930;2023-04-08T02:04:34;99432.56;;;7.13;100.00
10658;BME280;5377;43.276;26.930;2023-04-08T02:07:01;99431.34;;;7.24;100.00
10658;BME280;5377;43.276;26.930;2023-04-08T02:09:28;99437.34;;;7.26;100.00
10658;BME280;5377;43.276;26.930;2023-04-08T02:11:55;99431.16;;;7.33;100.00
10658;BME280;5377;43.276;26.930;2023-04-08T02:14:22;99421.16;;;7.27;100.00
10658;BME280;5377;43.276;26.930;2023-04-08T02:16:53;99431.41;;;7.46;98.83
10658;BME280;5377;43.276;26.930;2023-04-08T02:19:27;99435.31;;;7.59;93.49
10658;BME280;5377;43.276;26.930;2023-04-08T02:21:58;99410.91;;;7.47;88.49
10658;BME280;5377;43.276;26.930;2023-04-08T02:24:28;99426.69;;;7.57;87.38
10658;BME280;5377;43.276;26.930;2023-04-08T02:26:55;99418.03;;;7.55;86.45
10658;BME280;5377;43.276;26.930;2023-04-08T02:29:23;99420.34;;;7.58;86.43
10658;BME280;5377;43.276;26.930;2023-04-08T02:31:51;99428.13;;;7.67;88.04
10658;BME280;5377;43.276;26.930;2023-04-08T02:34:19;99427.69;;;7.56;94.63
10658;BME280;5377;43.276;26.930;2023-04-08T02:36:49;99427.63;;;7.41;98.19
10658;BME280;5377;43.276;26.930;2023-04-08T02:39:16;99425.78;;;7.41;100.00
10658;BME280;5377;43.276;26.930;2023-04-08T02:41:43;99384.81;;;7.11;100.00
10658;BME280;5377;43.276;26.930;2023-04-08T02:44:10;99427.66;;;7.33;100.00
10658;BME280;5377;43.276;26.930;2023-04-08T02:46:37;99432.19;;;7.24;100.00
10658;BME280;5377;43.276;26.930;2023-04-08T02:49:03;99424.34;;;7.31;100.00
10658;BME280;5377;43.276;26.930;2023-04-08T02:51:30;99413.53;;;7.24;96.48
10658;BME280;5377;43.276;26.930;2023-04-08T02:53:59;99425.66;;;7.27;99.21
10658;BME280;5377;43.276;26.930;2023-04-08T02:56:25;99423.19;;;7.25;96.61
10658;BME280;5377;43.276;26.930;2023-04-08T02:58:52;99420.03;;;7.30;95.02
10658;BME280;5377;43.276;26.930;2023-04-08T03:01:19;99427.19;;;7.29;94.08
10658;BME280;5377;43.276;26.930;2023-04-08T03:03:46;99424.34;;;7.31;94.24
10658;BME280;5377;43.276;26.930;2023-04-08T03:06:13;99428.31;;;7.35;94.04
10658;BME280;5377;43.276;26.930;2023-04-08T03:08:40;99418.19;;;7.30;92.40
10658;BME280;5377;43.276;26.930;2023-04-08T03:11:08;99424.38;;;7.23;91.48
10658;BME280;5377;43.276;26.930;2023-04-08T03:13:35;99426.00;;;7.32;91.75
10658;BME280;5377;43.276;26.930;2023-04-08T03:16:02;99425.47;;;7.36;92.48
10658;BME280;5377;43.276;26.930;2023-04-08T03:18:28;99426.03;;;7.24;92.53
10658;BME280;5377;43.276;26.930;2023-04-08T03:20:55;99431.69;;;7.20;92.58
10658;BME280;5377;43.276;26.930;2023-04-08T03:23:22;99430.88;;;7.20;92.95
10658;BME280;5377;43.276;26.930;2023-04-08T03:25:49;99423.69;;;7.29;92.43
10658;BME280;5377;43.276;26.930;2023-04-08T03:28:17;99435.66;;;7.33;91.70
10658;BME280;5377;43.276;26.930;2023-04-08T03:30:44;99437.31;;;7.34;92.63
10658;BME280;5377;43.276;26.930;2023-04-08T03:33:10;99449.09;;;7.39;91.90
10658;BME280;5377;43.276;26.930;2023-04-08T03:35:37;99440.28;;;7.39;92.45
10658;BME280;5377;43.276;26.930;2023-04-08T03:38:04;99450.75;;;7.40;94.04
10658;BME280;5377;43.276;26.930;2023-04-08T03:40:31;99448.97;;;7.33;93.72
10658;BME280;5377;43.276;26.930;2023-04-08T03:42:57;99455.63;;;7.37;93.44
10658;BME280;5377;43.276;26.930;2023-04-08T03:45:26;99443.13;;;7.37;93.24
10658;BME280;5377;43.276;26.930;2023-04-08T03:47:52;99450.66;;;7.57;93.86
10658;BME280;5377;43.276;26.930;2023-04-08T03:50:19;99451.44;;;7.42;92.78
10658;BME280;5377;43.276;26.930;2023-04-08T03:52:46;99456.63;;;7.36;93.67
10658;BME280;5377;43.276;26.930;2023-04-08T03:55:13;99462.91;;;7.43;93.34
10658;BME280;5377;43.276;26.930;2023-04-08T03:57:40;99456.22;;;7.47;92.81
10658;BME280;5377;43.276;26.930;2023-04-08T04:00:07;99453.09;;;7.43;92.53
10658;BME280;5377;43.276;26.930;2023-04-08T04:02:36;99455.09;;;7.41;93.26
10658;BME280;5377;43.276;26.930;2023-04-08T04:05:03;99446.50;;;7.23;94.50
10658;BME280;5377;43.276;26.930;2023-04-08T04:07:30;99463.78;;;7.35;96.42
10658;BME280;5377;43.276;26.930;2023-04-08T04:09:57;99461.13;;;7.27;96.65
10658;BME280;5377;43.276;26.930;2023-04-08T04:12:24;99464.13;;;7.32;96.41
10658;BME280;5377;43.276;26.930;2023-04-08T04:14:50;99471.78;;;7.35;97.00
10658;BME280;5377;43.276;26.930;2023-04-08T04:17:17;99474.47;;;7.27;97.33
10658;BME280;5377;43.276;26.930;2023-04-08T04:19:45;99478.88;;;7.04;99.15
10658;BME280;5377;43.276;26.930;2023-04-08T04:22:12;99481.53;;;7.12;100.00
10658;BME280;5377;43.276;26.930;2023-04-08T04:24:39;99484.78;;;7.30;100.00
10658;BME280;5377;43.276;26.930;2023-04-08T04:27:06;99485.31;;;7.17;100.00
10658;BME280;5377;43.276;26.930;2023-04-08T04:29:32;99492.88;;;7.06;100.00
10658;BME280;5377;43.276;26.930;2023-04-08T04:32:00;99483.72;;;7.00;100.00
10658;BME280;5377;43.276;26.930;2023-04-08T04:34:26;99488.41;;;6.90;100.00
10658;BME280;5377;43.276;26.930;2023-04-08T04:36:55;99482.09;;;6.83;100.00
10658;BME280;5377;43.276;26.930;2023-04-08T04:39:22;99480.91;;;7.02;100.00
10658;BME280;5377;43.276;26.930;2023-04-08T04:41:48;99480.91;;;6.94;100.00
10658;BME280;5377;43.276;26.930;2023-04-08T04:44:15;99494.66;;;7.13;100.00
10658;BME280;5377;43.276;26.930;2023-04-08T04:46:42;99492.69;;;7.07;100.00
10658;BME280;5377;43.276;26.930;2023-04-08T04:49:09;99493.16;;;7.19;100.00
10658;BME280;5377;43.276;26.930;2023-04-08T04:51:35;99493.53;;;7.08;100.00
10658;BME280;5377;43.276;26.930;2023-04-08T04:54:04;99490.91;;;6.83;100.00
10658;BME280;5377;43.276;26.930;2023-04-08T04:56:30;99492.56;;;6.93;100.00
10658;BME280;5377;43.276;26.930;2023-04-08T04:58:57;99487.09;;;6.94;100.00
10658;BME280;5377;43.276;26.930;2023-04-08T05:01:24;99496.94;;;6.69;100.00
10658;BME280;5377;43.276;26.930;2023-04-08T05:03:51;99494.25;;;6.77;100.00
10658;BME280;5377;43.276;26.930;2023-04-08T05:06:18;99505.53;;;6.87;100.00
10658;BME280;5377;43.276;26.930;2023-04-08T05:08:44;99502.41;;;6.84;100.00
10658;BME280;5377;43.276;26.930;2023-04-08T05:11:13;99512.03;;;6.85;100.00
10658;BME280;5377;43.276;26.930;2023-04-08T05:13:42;99516.69;;;6.91;100.00
10658;BME280;5377;43.276;26.930;2023-04-08T05:16:09;99512.88;;;6.85;100.00
10658;BME280;5377;43.276;26.930;2023-04-08T05:18:36;99510.03;;;7.03;100.00
10658;BME280;5377;43.276;26.930;2023-04-08T05:21:03;99511.13;;;7.17;100.00
10658;BME280;5377;43.276;26.930;2023-04-08T05:23:30;99513.09;;;7.31;100.00
10658;BME280;5377;43.276;26.930;2023-04-08T05:25:56;99516.09;;;7.28;100.00
10658;BME280;5377;43.276;26.930;2023-04-08T05:28:25;99517.00;;;7.51;100.00
10658;BME280;5377;43.276;26.930;2023-04-08T05:30:52;99512.72;;;7.42;100.00
10658;BME280;5377;43.276;26.930;2023-04-08T05:33:19;99511.53;;;7.45;100.00
10658;BME280;5377;43.276;26.930;2023-04-08T05:35:46;99515.72;;;7.39;100.00
10658;BME280;5377;43.276;26.930;2023-04-08T05:38:13;99517.97;;;7.59;100.00
10658;BME280;5377;43.276;26.930;2023-04-08T05:40:39;99521.75;;;7.72;100.00
10658;BME280;5377;43.276;26.930;2023-04-08T05:43:06;99519.28;;;7.63;100.00
10658;BME280;5377;43.276;26.930;2023-04-08T05:45:34;99522.44;;;7.66;100.00
10658;BME280;5377;43.276;26.930;2023-04-08T05:48:01;99507.28;;;7.67;100.00
10658;BME280;5377;43.276;26.930;2023-04-08T05:50:28;99519.44;;;7.61;100.00
10658;BME280;5377;43.276;26.930;2023-04-08T05:52:54;99520.97;;;7.56;100.00
10658;BME280;5377;43.276;26.930;2023-04-08T05:55:22;99508.41;;;7.72;100.00
10658;BME280;5377;43.276;26.930;2023-04-08T05:57:49;99472.50;;;7.52;100.00
10658;BME280;5377;43.276;26.930;2023-04-08T06:00:15;99517.38;;;7.79;100.00
10658;BME280;5377;43.276;26.930;2023-04-08T06:02:44;99510.25;;;7.72;100.00
10658;BME280;5377;43.276;26.930;2023-04-08T06:05:11;99509.00;;;7.82;99.56
10658;BME280;5377;43.276;26.930;2023-04-08T06:07:37;99508.47;;;7.87;100.00
10658;BME280;5377;43.276;26.930;2023-04-08T06:10:05;99515.94;;;7.92;100.00
10658;BME280;5377;43.276;26.930;2023-04-08T06:12:34;99518.91;;;7.97;100.00
10658;BME280;5377;43.276;26.930;2023-04-08T06:15:01;99521.44;;;7.98;99.59
10658;BME280;5377;43.276;26.930;2023-04-08T06:17:28;99512.66;;;8.12;97.37
10658;BME280;5377;43.276;26.930;2023-04-08T06:19:57;99512.94;;;8.18;96.95
10658;BME280;5377;43.276;26.930;2023-04-08T06:22:23;99519.34;;;8.31;97.52
10658;BME280;5377;43.276;26.930;2023-04-08T06:24:50;99512.16;;;8.32;96.13
10658;BME280;5377;43.276;26.930;2023-04-08T06:27:17;99527.53;;;8.38;94.59
10658;BME280;5377;43.276;26.930;2023-04-08T06:29:44;99505.53;;;8.28;93.49
10658;BME280;5377;43.276;26.930;2023-04-08T06:32:11;99516.69;;;8.54;92.50
10658;BME280;5377;43.276;26.930;2023-04-08T06:34:38;99514.41;;;8.66;90.72
10658;BME280;5377;43.276;26.930;2023-04-08T06:37:06;99515.03;;;8.53;89.29
10658;BME280;5377;43.276;26.930;2023-04-08T06:39:33;99506.31;;;8.59;89.14
10658;BME280;5377;43.276;26.930;2023-04-08T06:42:00;99509.56;;;8.69;89.22
10658;BME280;5377;43.276;26.930;2023-04-08T06:44:27;99506.81;;;8.78;88.07
10658;BME280;5377;43.276;26.930;2023-04-08T06:46:54;99505.91;;;9.00;85.71
10658;BME280;5377;43.276;26.930;2023-04-08T06:49:21;99503.13;;;8.79;85.43
10658;BME280;5377;43.276;26.930;2023-04-08T06:51:48;99491.63;;;8.78;86.38
10658;BME280;5377;43.276;26.930;2023-04-08T06:54:16;99504.38;;;9.05;84.90
10658;BME280;5377;43.276;26.930;2023-04-08T06:56:43;99499.81;;;9.35;84.49
10658;BME280;5377;43.276;26.930;2023-04-08T06:59:10;99496.69;;;9.32;82.51
10658;BME280;5377;43.276;26.930;2023-04-08T07:01:37;99499.19;;;9.48;82.04
10658;BME280;5377;43.276;26.930;2023-04-08T07:04:03;99493.47;;;9.51;81.96
10658;BME280;5377;43.276;26.930;2023-04-08T07:06:30;99506.00;;;9.21;81.76
10658;BME280;5377;43.276;26.930;2023-04-08T07:08:57;99509.41;;;9.30;82.08
10658;BME280;5377;43.276;26.930;2023-04-08T07:11:25;99510.16;;;9.38;80.94
10658;BME280;5377;43.276;26.930;2023-04-08T07:13:52;99510.59;;;9.57;79.86
10658;BME280;5377;43.276;26.930;2023-04-08T07:16:19;99508.44;;;9.67;78.50
10658;BME280;5377;43.276;26.930;2023-04-08T07:18:45;99508.09;;;9.55;77.81
10658;BME280;5377;43.276;26.930;2023-04-08T07:21:12;99512.75;;;9.83;78.04
10658;BME280;5377;43.276;26.930;2023-04-08T07:23:39;99514.19;;;9.64;78.53
10658;BME280;5377;43.276;26.930;2023-04-08T07:26:06;99513.97;;;9.80;77.83
10658;BME280;5377;43.276;26.930;2023-04-08T07:28:34;99514.63;;;10.04;76.39
10658;BME280;5377;43.276;26.930;2023-04-08T07:31:09;99527.03;;;9.90;77.10
10658;BME280;5377;43.276;26.930;2023-04-08T07:33:36;99538.56;;;9.90;77.89
10658;BME280;5377;43.276;26.930;2023-04-08T07:36:02;99526.06;;;9.76;78.91
10658;BME280;5377;43.276;26.930;2023-04-08T07:38:30;99534.66;;;9.57;80.28
10658;BME280;5377;43.276;26.930;2023-04-08T07:40:57;99528.81;;;9.83;80.55
10658;BME280;5377;43.276;26.930;2023-04-08T07:43:23;99533.72;;;9.64;80.76
10658;BME280;5377;43.276;26.930;2023-04-08T07:45:52;99540.31;;;9.47;82.21
10658;BME280;5377;43.276;26.930;2023-04-08T07:48:18;99539.00;;;9.58;81.94
10658;BME280;5377;43.276;26.930;2023-04-08T07:50:45;99533.59;;;9.87;82.13
10658;BME280;5377;43.276;26.930;2023-04-08T07:53:12;99542.75;;;9.63;82.46
10658;BME280;5377;43.276;26.930;2023-04-08T07:55:39;99546.53;;;9.69;82.80
10658;BME280;5377;43.276;26.930;2023-04-08T07:58:06;99540.66;;;9.74;83.76
10658;BME280;5377;43.276;26.930;2023-04-08T08:00:33;99536.84;;;9.83;83.63
10658;BME280;5377;43.276;26.930;2023-04-08T08:03:01;99541.50;;;9.95;82.68
10658;BME280;5377;43.276;26.930;2023-04-08T08:05:28;99539.53;;;9.83;82.21
10658;BME280;5377;43.276;26.930;2023-04-08T08:07:55;99540.38;;;9.54;83.25
10658;BME280;5377;43.276;26.930;2023-04-08T08:10:22;99544.88;;;9.83;83.24
10658;BME280;5377;43.276;26.930;2023-04-08T08:12:49;99530.41;;;10.13;81.50
10658;BME280;5377;43.276;26.930;2023-04-08T08:15:15;99524.50;;;10.39;80.33
10658;BME280;5377;43.276;26.930;2023-04-08T08:17:42;99524.69;;;10.59;79.22
10658;BME280;5377;43.276;26.930;2023-04-08T08:20:11;99533.09;;;10.56;78.09
10658;BME280;5377;43.276;26.930;2023-04-08T08:22:37;99532.31;;;10.83;76.73
10658;BME280;5377;43.276;26.930;2023-04-08T08:25:05;99522.16;;;11.07;75.56
10658;BME280;5377;43.276;26.930;2023-04-08T08:27:34;99533.41;;;11.23;75.30
10658;BME280;5377;43.276;26.930;2023-04-08T08:30:01;99534.53;;;11.42;74.99
10658;BME280;5377;43.276;26.930;2023-04-08T08:32:28;99523.69;;;11.57;73.12
10658;BME280;5377;43.276;26.930;2023-04-08T08:34:56;99522.19;;;11.82;71.59
10658;BME280;5377;43.276;26.930;2023-04-08T08:37:24;99524.59;;;11.77;71.39
10658;BME280;5377;43.276;26.930;2023-04-08T08:39:50;99519.94;;;11.93;69.90
10658;BME280;5377;43.276;26.930;2023-04-08T08:42:18;99530.22;;;11.82;69.82
10658;BME280;5377;43.276;26.930;2023-04-08T08:44:46;99519.59;;;11.68;69.87
10658;BME280;5377;43.276;26.930;2023-04-08T08:47:13;99522.03;;;12.10;69.00
10658;BME280;5377;43.276;26.930;2023-04-08T08:49:39;99520.22;;;12.17;68.59
10658;BME280;5377;43.276;26.930;2023-04-08T08:52:07;99513.44;;;12.61;67.67
10658;BME280;5377;43.276;26.930;2023-04-08T08:54:35;99514.25;;;13.01;69.52
10658;BME280;5377;43.276;26.930;2023-04-08T08:57:02;99514.00;;;13.36;67.24
10658;BME280;5377;43.276;26.930;2023-04-08T08:59:29;99511.31;;;13.94;63.95
10658;BME280;5377;43.276;26.930;2023-04-08T09:01:56;99512.91;;;14.01;61.52
10658;BME280;5377;43.276;26.930;2023-04-08T09:04:23;99507.66;;;14.51;59.54
10658;BME280;5377;43.276;26.930;2023-04-08T09:07:07;99505.53;;;14.60;59.52
10658;BME280;5377;43.276;26.930;2023-04-08T09:09:47;99514.38;;;14.67;58.29
10658;BME280;5377;43.276;26.930;2023-04-08T09:12:13;99505.56;;;15.03;57.19
10658;BME280;5377;43.276;26.930;2023-04-08T09:14:40;99497.41;;;15.46;55.65
10658;BME280;5377;43.276;26.930;2023-04-08T09:17:08;99496.06;;;15.37;56.12
10658;BME280;5377;43.276;26.930;2023-04-08T09:19:35;99497.53;;;15.15;55.62
10658;BME280;5377;43.276;26.930;2023-04-08T09:22:06;99487.00;;;15.32;55.97
10658;BME280;5377;43.276;26.930;2023-04-08T09:24:34;99481.25;;;15.95;55.06
10658;BME280;5377;43.276;26.930;2023-04-08T09:27:03;99477.66;;;16.42;52.91
10658;BME280;5377;43.276;26.930;2023-04-08T09:29:30;99482.84;;;16.56;52.25
10658;BME280;5377;43.276;26.930;2023-04-08T09:32:00;99470.91;;;16.87;51.21
10658;BME280;5377;43.276;26.930;2023-04-08T09:34:28;99464.56;;;18.08;50.02
10658;BME280;5377;43.276;26.930;2023-04-08T09:36:56;99467.16;;;18.03;47.68
10658;BME280;5377;43.276;26.930;2023-04-08T09:39:23;99454.19;;;18.67;48.01
10658;BME280;5377;43.276;26.930;2023-04-08T09:41:51;99463.53;;;17.97;46.76
10658;BME280;5377;43.276;26.930;2023-04-08T09:44:20;99459.53;;;18.79;46.10
10658;BME280;5377;43.276;26.930;2023-04-08T09:46:55;99459.41;;;17.95;45.91
10658;BME280;5377;43.276;26.930;2023-04-08T09:49:25;99455.69;;;18.29;47.23
10658;BME280;5377;43.276;26.930;2023-04-08T09:51:58;99441.94;;;19.42;45.07
10658;BME280;5377;43.276;26.930;2023-04-08T09:54:34;99449.13;;;19.09;44.31
10658;BME280;5377;43.276;26.930;2023-04-08T09:57:09;99460.41;;;18.51;45.03
10658;BME280;5377;43.276;26.930;2023-04-08T09:59:38;99460.03;;;18.14;46.39
10658;BME280;5377;43.276;26.930;2023-04-08T10:02:09;99454.38;;;18.99;45.14
10658;BME280;5377;43.276;26.930;2023-04-08T10:04:38;99454.06;;;19.12;44.66
10658;BME280;5377;43.276;26.930;2023-04-08T10:07:07;99449.19;;;18.76;45.23
10658;BME280;5377;43.276;26.930;2023-04-08T10:09:34;99449.31;;;18.69;44.72
10658;BME280;5377;43.276;26.930;2023-04-08T10:12:03;99444.88;;;18.63;43.65
10658;BME280;5377;43.276;26.930;2023-04-08T10:14:30;99450.22;;;18.58;43.82
10658;BME280;5377;43.276;26.930;2023-04-08T10:17:27;99450.25;;;18.75;43.60
10658;BME280;5377;43.276;26.930;2023-04-08T10:19:54;99454.44;;;18.65;44.95
10658;BME280;5377;43.276;26.930;2023-04-08T10:22:44;99444.84;;;18.96;42.94
10658;BME280;5377;43.276;26.930;2023-04-08T10:25:31;99445.84;;;18.90;42.11
10658;BME280;5377;43.276;26.930;2023-04-08T10:27:58;99440.88;;;19.04;41.45
10658;BME280;5377;43.276;26.930;2023-04-08T10:30:43;99445.47;;;18.65;41.76
10658;BME280;5377;43.276;26.930;2023-04-08T10:33:12;99436.91;;;18.39;42.29
10658;BME280;5377;43.276;26.930;2023-04-08T10:35:42;99450.56;;;17.71;43.06
10658;BME280;5377;43.276;26.930;2023-04-08T10:38:11;99440.88;;;17.23;44.19
10658;BME280;5377;43.276;26.930;2023-04-08T10:40:39;99442.78;;;17.11;44.72
10658;BME280;5377;43.276;26.930;2023-04-08T10:43:07;99440.91;;;17.75;44.15
10658;BME280;5377;43.276;26.930;2023-04-08T10:45:35;99430.13;;;18.08;43.43
10658;BME280;5377;43.276;26.930;2023-04-08T10:48:12;99438.31;;;18.42;42.59
10658;BME280;5377;43.276;26.930;2023-04-08T10:50:40;99434.16;;;18.06;42.60
10658;BME280;5377;43.276;26.930;2023-04-08T10:53:07;99446.50;;;17.85;43.05
10658;BME280;5377;43.276;26.930;2023-04-08T10:55:34;99446.38;;;17.40;43.90
10658;BME280;5377;43.276;26.930;2023-04-08T10:58:05;99435.75;;;17.50;43.95
10658;BME280;5377;43.276;26.930;2023-04-08T11:00:33;99432.81;;;17.52;43.88
10658;BME280;5377;43.276;26.930;2023-04-08T11:03:00;99432.78;;;16.88;44.84
10658;BME280;5377;43.276;26.930;2023-04-08T11:05:29;99436.31;;;17.12;44.55
10658;BME280;5377;43.276;26.930;2023-04-08T11:07:56;99429.00;;;17.12;44.29
10658;BME280;5377;43.276;26.930;2023-04-08T11:10:24;99428.84;;;17.42;44.72
10658;BME280;5377;43.276;26.930;2023-04-08T11:12:53;99426.53;;;17.74;43.79
10658;BME280;5377;43.276;26.930;2023-04-08T11:15:20;99401.41;;;16.75;44.33
10658;BME280;5377;43.276;26.930;2023-04-08T11:17:47;99425.44;;;17.35;44.19
10658;BME280;5377;43.276;26.930;2023-04-08T11:20:14;99427.72;;;17.55;44.62
10658;BME280;5377;43.276;26.930;2023-04-08T11:22:43;99420.03;;;17.35;43.93
10658;BME280;5377;43.276;26.930;2023-04-08T11:25:10;99412.84;;;17.98;42.77
10658;BME280;5377;43.276;26.930;2023-04-08T11:27:37;99408.38;;;18.70;40.89
10658;BME280;5377;43.276;26.930;2023-04-08T11:30:06;99391.56;;;18.90;40.26
10658;BME280;5377;43.276;26.930;2023-04-08T11:32:34;99387.19;;;19.28;40.15
10658;BME280;5377;43.276;26.930;2023-04-08T11:35:04;99391.38;;;18.75;40.43
10658;BME280;5377;43.276;26.930;2023-04-08T11:37:36;99383.63;;;18.67;39.69
10658;BME280;5377;43.276;26.930;2023-04-08T11:40:07;99393.25;;;18.58;38.51
10658;BME280;5377;43.276;26.930;2023-04-08T11:42:34;99391.78;;;18.50;39.04
10658;BME280;5377;43.276;26.930;2023-04-08T11:45:09;99391.31;;;17.63;40.24
10658;BME280;5377;43.276;26.930;2023-04-08T11:47:36;99380.97;;;17.20;40.94
10658;BME280;5377;43.276;26.930;2023-04-08T11:50:04;99389.31;;;17.70;41.18
10658;BME280;5377;43.276;26.930;2023-04-08T11:52:42;99384.69;;;18.32;40.18
10658;BME280;5377;43.276;26.930;2023-04-08T11:55:11;99386.22;;;17.78;40.10
10658;BME280;5377;43.276;26.930;2023-04-08T11:57:38;99383.16;;;17.34;40.03
10658;BME280;5377;43.276;26.930;2023-04-08T12:00:06;99384.00;;;17.63;40.08
10658;BME280;5377;43.276;26.930;2023-04-08T12:02:34;99382.91;;;17.48;40.41
10658;BME280;5377;43.276;26.930;2023-04-08T12:05:01;99381.66;;;17.67;39.81
10658;BME280;5377;43.276;26.930;2023-04-08T12:07:27;99375.25;;;18.18;39.72
10658;BME280;5377;43.276;26.930;2023-04-08T12:09:54;99381.03;;;17.65;44.44
10658;BME280;5377;43.276;26.930;2023-04-08T12:12:22;99384.94;;;17.29;44.75
10658;BME280;5377;43.276;26.930;2023-04-08T12:14:49;99385.13;;;17.10;45.36
10658;BME280;5377;43.276;26.930;2023-04-08T12:17:16;99386.81;;;16.76;46.32
10658;BME280;5377;43.276;26.930;2023-04-08T12:19:43;99378.50;;;16.66;47.35
10658;BME280;5377;43.276;26.930;2023-04-08T12:22:09;99375.75;;;16.78;47.96
10658;BME280;5377;43.276;26.930;2023-04-08T12:24:36;99374.44;;;16.57;48.05
10658;BME280;5377;43.276;26.930;2023-04-08T12:27:03;99360.28;;;17.13;47.10
10658;BME280;5377;43.276;26.930;2023-04-08T12:29:31;99371.13;;;17.13;46.02
10658;BME280;5377;43.276;26.930;2023-04-08T12:31:58;99357.34;;;17.15;45.75
10658;BME280;5377;43.276;26.930;2023-04-08T12:34:26;99356.31;;;17.73;45.42
10658;BME280;5377;43.276;26.930;2023-04-08T12:36:53;99357.00;;;17.11;45.78
10658;BME280;5377;43.276;26.930;2023-04-08T12:39:21;99359.41;;;17.36;45.33
10658;BME280;5377;43.276;26.930;2023-04-08T12:41:47;99356.09;;;17.74;44.74
10658;BME280;5377;43.276;26.930;2023-04-08T12:44:14;99342.47;;;18.20;44.04
10658;BME280;5377;43.276;26.930;2023-04-08T12:46:42;99344.75;;;17.94;43.63
10658;BME280;5377;43.276;26.930;2023-04-08T12:49:09;99350.34;;;17.31;44.33
10658;BME280;5377;43.276;26.930;2023-04-08T12:51:36;99347.03;;;17.00;44.75
10658;BME280;5377;43.276;26.930;2023-04-08T12:54:03;99347.84;;;17.01;44.55
10658;BME280;5377;43.276;26.930;2023-04-08T12:56:31;99348.94;;;16.76;44.92
10658;BME280;5377;43.276;26.930;2023-04-08T12:58:58;99344.22;;;16.83;45.84
10658;BME280;5377;43.276;26.930;2023-04-08T13:01:25;99356.31;;;16.22;46.15
10658;BME280;5377;43.276;26.930;2023-04-08T13:03:53;99348.69;;;16.19;45.75
10658;BME280;5377;43.276;26.930;2023-04-08T13:06:21;99361.38;;;16.19;45.92
10658;BME280;5377;43.276;26.930;2023-04-08T13:08:48;99344.94;;;16.32;45.74